createdAt,value
2018-01-15T00:01:30.392Z,57.52
2018-01-15T00:03:58.755Z,58.61
2018-01-15T00:06:27.121Z,57.60
2018-01-15T00:08:55.493Z,58.34
2018-01-15T00:11:23.970Z,58.33
2018-01-15T00:13:52.402Z,57.57
2018-01-15T00:16:20.842Z,58.69
2018-01-15T00:18:49.261Z,57.45
2018-01-15T00:21:17.619Z,57.07
2018-01-15T00:23:45.998Z,58.19
2018-01-15T00:26:14.439Z,57.06
2018-01-15T00:28:42.865Z,56.81
2018-01-15T00:31:11.244Z,58.22
2018-01-15T00:33:39.615Z,57.55
2018-01-15T00:36:07.968Z,57.18
2018-01-15T00:38:36.376Z,58.63
2018-01-15T00:41:04.747Z,57.38
2018-01-15T00:43:33.117Z,58.37
2018-01-15T00:46:01.524Z,58.06
2018-01-15T00:48:29.892Z,58.60
2018-01-15T00:50:58.270Z,58.23
2018-01-15T00:53:26.637Z,58.07
2018-01-15T00:55:55.007Z,57.33
2018-01-15T00:58:23.356Z,58.65
2018-01-15T01:00:52.204Z,58.05
2018-01-15T01:03:20.689Z,59.14
2018-01-15T01:05:49.158Z,58.75
2018-01-15T01:08:17.532Z,58.79
2018-01-15T01:10:46.376Z,58.21
2018-01-15T01:13:15.127Z,57.59
2018-01-15T01:15:43.509Z,56.87
2018-01-15T01:18:11.876Z,56.64
2018-01-15T01:20:40.240Z,57.32
2018-01-15T01:23:08.640Z,56.54
2018-01-15T01:25:37.056Z,57.86
2018-01-15T01:28:05.479Z,57.38
2018-01-15T01:30:33.838Z,58.07
2018-01-15T01:33:02.256Z,57.16
2018-01-15T01:35:30.634Z,58.61
2018-01-15T01:37:59.012Z,58.84
2018-01-15T01:40:27.424Z,57.36
2018-01-15T01:42:55.793Z,57.80
2018-01-15T01:45:24.157Z,58.20
2018-01-15T01:47:52.988Z,59.10
2018-01-15T01:50:21.515Z,59.20
2018-01-15T01:52:49.900Z,59.52
2018-01-15T01:55:18.279Z,58.93
2018-01-15T01:57:46.882Z,58.54
2018-01-15T02:00:15.227Z,58.45
2018-01-15T02:02:43.708Z,57.41
2018-01-15T02:05:12.063Z,57.11
2018-01-15T02:07:40.419Z,58.65
2018-01-15T02:10:08.784Z,56.98
2018-01-15T02:12:37.641Z,57.58
2018-01-15T02:15:05.991Z,57.86
2018-01-15T02:17:34.381Z,58.64
2018-01-15T02:20:02.749Z,58.59
2018-01-15T02:22:31.153Z,58.11
2018-01-15T02:24:59.539Z,57.52
2018-01-15T02:27:27.921Z,58.30
2018-01-15T02:29:56.288Z,57.94
2018-01-15T02:32:24.643Z,57.50
2018-01-15T02:34:53.027Z,57.83
2018-01-15T02:37:21.416Z,57.95
2018-01-15T02:39:49.794Z,57.49
2018-01-15T02:42:18.288Z,57.01
2018-01-15T02:44:46.670Z,57.65
2018-01-15T02:47:15.236Z,58.20
2018-01-15T02:49:43.604Z,57.63
2018-01-15T02:52:11.981Z,56.54
2018-01-15T02:54:40.365Z,57.64
2018-01-15T02:57:08.746Z,57.02
2018-01-15T02:59:37.143Z,57.56
2018-01-15T03:02:05.497Z,57.93
2018-01-15T03:04:33.856Z,57.12
2018-01-15T03:07:02.608Z,56.41
2018-01-15T03:09:31.092Z,56.43
2018-01-15T03:11:59.465Z,56.42
2018-01-15T03:14:27.936Z,55.90
2018-01-15T03:16:56.291Z,55.86
2018-01-15T03:19:24.650Z,56.05
2018-01-15T03:21:53.011Z,55.49
2018-01-15T03:24:21.933Z,57.06
2018-01-15T03:26:50.300Z,57.62
2018-01-15T03:29:18.738Z,57.39
2018-01-15T03:31:47.197Z,56.36
2018-01-15T03:34:15.560Z,55.66
2018-01-15T03:36:43.920Z,56.33
2018-01-15T03:39:12.280Z,55.58
2018-01-15T03:41:41.426Z,55.91
2018-01-15T03:44:09.775Z,56.87
2018-01-15T03:46:38.184Z,56.92
2018-01-15T03:49:06.543Z,57.05
2018-01-15T03:51:34.938Z,58.40
2018-01-15T03:54:03.336Z,56.98
2018-01-15T03:56:31.699Z,56.61
2018-01-15T03:59:00.096Z,56.91
2018-01-15T04:01:28.480Z,56.67
2018-01-15T04:03:56.843Z,57.29
2018-01-15T04:06:25.258Z,58.93
2018-01-15T04:08:54.004Z,58.50
2018-01-15T04:11:22.574Z,59.01
2018-01-15T04:13:50.992Z,57.55
2018-01-15T04:16:19.431Z,57.42
2018-01-15T04:18:47.823Z,56.72
2018-01-15T04:21:16.221Z,56.75
2018-01-15T04:23:44.583Z,57.27
2018-01-15T04:26:12.946Z,56.38
2018-01-15T04:28:41.339Z,55.90
2018-01-15T04:31:09.700Z,56.99
2018-01-15T04:33:38.104Z,56.20
2018-01-15T04:36:06.465Z,56.20
2018-01-15T04:38:34.825Z,56.35
2018-01-15T04:41:03.200Z,55.01
2018-01-15T04:43:31.775Z,55.59
2018-01-15T04:46:00.152Z,55.34
2018-01-15T04:48:28.611Z,55.34
2018-01-15T04:50:57.455Z,57.09
2018-01-15T04:53:25.854Z,57.26
2018-01-15T04:55:54.327Z,57.46
2018-01-15T04:58:22.694Z,57.46
2018-01-15T05:00:51.084Z,57.68
2018-01-15T05:03:19.432Z,57.39
2018-01-15T05:05:47.809Z,58.93
2018-01-15T05:08:16.169Z,59.15
2018-01-15T05:10:44.945Z,59.66
2018-01-15T05:13:13.300Z,59.44
2018-01-15T05:15:41.763Z,58.51
2018-01-15T05:18:10.158Z,58.76
2018-01-15T05:20:38.709Z,59.50
2018-01-15T05:23:07.081Z,58.59
2018-01-15T05:25:35.440Z,57.67
2018-01-15T05:28:03.832Z,58.54
2018-01-15T05:30:32.356Z,58.36
2018-01-15T05:33:00.828Z,58.67
2018-01-15T05:35:29.245Z,58.47
2018-01-15T05:37:58.000Z,57.88
2018-01-15T05:40:26.388Z,57.77
2018-01-15T05:42:54.849Z,57.02
2018-01-15T05:45:23.261Z,57.66
2018-01-15T05:47:51.708Z,56.16
2018-01-15T05:50:20.071Z,56.49
2018-01-15T05:52:48.468Z,57.63
2018-01-15T05:55:16.947Z,58.54
2018-01-15T05:57:45.312Z,58.13
2018-01-15T06:00:13.886Z,58.65
2018-01-15T06:02:42.344Z,58.23
2018-01-15T06:05:11.280Z,59.11
2018-01-15T06:07:39.694Z,58.90
2018-01-15T06:10:08.025Z,58.74
2018-01-15T06:12:36.420Z,58.12
2018-01-15T06:15:04.800Z,58.23
2018-01-15T06:17:33.183Z,58.11
2018-01-15T06:20:01.678Z,58.40
2018-01-15T06:22:30.036Z,58.44
2018-01-15T06:24:58.436Z,57.97
2018-01-15T06:27:26.824Z,58.48
2018-01-15T06:29:55.280Z,58.72
2018-01-15T06:32:23.639Z,58.57
2018-01-15T06:34:52.005Z,58.68
2018-01-15T06:37:20.512Z,58.94
2018-01-15T06:39:48.864Z,60.12
2018-01-15T06:44:52.229Z,60.60
2018-01-15T06:47:20.691Z,61.48
2018-01-15T06:49:49.066Z,61.25
2018-01-15T06:52:17.828Z,61.54
2018-01-15T06:54:46.310Z,61.88
2018-01-15T06:57:14.768Z,61.39
2018-01-15T06:59:43.147Z,61.26
2018-01-15T07:02:11.911Z,60.65
2018-01-15T07:04:40.345Z,61.34
2018-01-15T07:07:08.727Z,61.66
2018-01-15T07:09:37.120Z,60.88
2018-01-15T07:12:05.520Z,60.28
2018-01-15T07:14:33.868Z,61.44
2018-01-15T07:17:02.258Z,62.02
2018-01-15T07:19:30.640Z,62.81
2018-01-15T07:21:59.004Z,62.19
2018-01-15T07:24:27.362Z,62.91
2018-01-15T07:26:55.868Z,62.42
2018-01-15T07:29:24.228Z,62.67
2018-01-15T07:31:52.593Z,61.73
2018-01-15T07:34:20.948Z,61.91
2018-01-15T07:36:49.407Z,62.00
2018-01-15T07:39:17.792Z,61.05
2018-01-15T07:41:46.264Z,62.31
2018-01-15T07:44:14.636Z,61.69
2018-01-15T07:46:43.823Z,62.34
2018-01-15T07:49:12.171Z,61.81
2018-01-15T07:51:40.539Z,60.62
2018-01-15T07:54:09.394Z,58.81
2018-01-15T07:56:37.760Z,56.21
2018-01-15T07:59:06.159Z,57.09
2018-01-15T08:01:35.076Z,56.48
2018-01-15T08:04:03.827Z,55.21
2018-01-15T08:06:32.207Z,53.96
2018-01-15T08:09:00.574Z,53.53
2018-01-15T08:11:28.955Z,52.99
2018-01-15T08:13:57.335Z,52.70
2018-01-15T08:16:25.703Z,52.63
2018-01-15T08:18:54.077Z,52.88
2018-01-15T08:21:22.467Z,51.02
2018-01-15T08:23:50.815Z,51.30
2018-01-15T08:26:20.120Z,50.60
2018-01-15T08:28:48.530Z,49.17
2018-01-15T08:31:16.905Z,49.63
2018-01-15T08:33:45.281Z,49.41
2018-01-15T08:36:13.632Z,48.25
2018-01-15T08:38:41.987Z,48.21
2018-01-15T08:41:10.814Z,47.66
2018-01-15T08:43:39.190Z,48.04
2018-01-15T08:46:07.548Z,47.04
2018-01-15T08:48:35.953Z,47.82
2018-01-15T08:51:04.674Z,49.36
2018-01-15T08:53:33.119Z,49.48
2018-01-15T08:56:01.503Z,48.58
2018-01-15T08:58:29.856Z,48.42
2018-01-15T09:00:58.268Z,49.10
2018-01-15T09:03:26.612Z,48.23
2018-01-15T09:06:00.999Z,49.14
2018-01-15T09:08:29.350Z,48.41
2018-01-15T09:10:57.712Z,48.05
2018-01-15T09:13:26.100Z,46.69
2018-01-15T09:15:54.675Z,46.93
2018-01-15T09:18:23.064Z,45.88
2018-01-15T09:20:51.430Z,45.03
2018-01-15T09:23:19.767Z,45.84
2018-01-15T09:25:48.600Z,45.49
2018-01-15T09:28:16.979Z,45.51
2018-01-15T09:30:45.368Z,46.22
2018-01-15T09:33:13.795Z,45.72
2018-01-15T09:35:42.673Z,44.79
2018-01-15T09:38:11.449Z,44.58
2018-01-15T09:40:39.796Z,44.52
2018-01-15T09:43:08.170Z,43.24
2018-01-15T09:45:36.536Z,43.08
2018-01-15T09:48:04.880Z,42.74
2018-01-15T09:50:33.648Z,42.13
2018-01-15T09:53:02.004Z,43.08
2018-01-15T09:55:30.402Z,43.96
2018-01-15T09:57:58.729Z,42.40
2018-01-15T10:00:27.088Z,42.04
2018-01-15T10:02:55.910Z,42.42
2018-01-15T10:05:24.285Z,42.42
2018-01-15T10:07:52.692Z,42.53
2018-01-15T10:10:21.044Z,43.42
2018-01-15T10:12:49.400Z,44.44
2018-01-15T10:15:17.833Z,43.12
2018-01-15T10:17:46.302Z,42.84
2018-01-15T10:20:14.668Z,42.74
2018-01-15T10:22:43.069Z,43.52
2018-01-15T10:25:11.431Z,43.65
2018-01-15T10:27:39.816Z,42.68
2018-01-15T10:30:08.196Z,43.98
2018-01-15T10:32:36.569Z,44.55
2018-01-15T10:35:04.974Z,45.11
2018-01-15T10:37:33.349Z,45.48
2018-01-15T10:40:01.734Z,44.99
2018-01-15T10:42:30.270Z,45.65
2018-01-15T10:44:58.619Z,44.21
2018-01-15T10:47:27.392Z,44.99
2018-01-15T10:49:55.760Z,46.12
2018-01-15T10:52:24.106Z,45.21
2018-01-15T10:54:52.449Z,46.59
2018-01-15T10:57:20.815Z,47.13
2018-01-15T10:59:49.599Z,46.01
2018-01-15T11:02:18.439Z,46.24
2018-01-15T11:04:46.805Z,46.29
2018-01-15T11:07:15.154Z,45.91
2018-01-15T11:09:43.904Z,46.13
2018-01-15T11:12:12.268Z,46.69
2018-01-15T11:14:40.612Z,47.78
2018-01-15T11:17:09.019Z,47.46
2018-01-15T11:22:05.784Z,47.58
2018-01-15T11:24:34.239Z,48.44
2018-01-15T11:27:03.590Z,47.96
2018-01-15T11:29:31.966Z,47.56
2018-01-15T11:32:00.443Z,47.95
2018-01-15T11:34:28.792Z,48.69
2018-01-15T11:36:57.284Z,49.32
2018-01-15T11:39:25.673Z,49.72
2018-01-15T11:41:54.108Z,50.35
2018-01-15T11:44:22.624Z,50.18
2018-01-15T11:46:50.987Z,50.82
2018-01-15T11:49:19.379Z,50.36
2018-01-15T11:51:47.733Z,50.14
2018-01-15T11:54:16.076Z,49.45
2018-01-15T11:56:44.856Z,48.44
2018-01-15T11:59:13.355Z,49.08
2018-01-15T12:01:42.105Z,49.26
2018-01-15T12:04:10.456Z,48.20
2018-01-15T12:06:38.815Z,48.33
2018-01-15T12:09:07.247Z,49.12
2018-01-15T12:11:35.712Z,49.45
2018-01-15T12:14:04.115Z,50.17
2018-01-15T12:16:32.441Z,49.59
2018-01-15T12:19:00.864Z,49.13
2018-01-15T12:21:29.231Z,49.35
2018-01-15T12:23:57.595Z,49.02
2018-01-15T12:26:25.943Z,50.02
2018-01-15T12:28:54.363Z,49.20
2018-01-15T12:31:22.718Z,49.19
2018-01-15T12:33:51.220Z,47.73
2018-01-15T12:36:19.602Z,49.31
2018-01-15T12:38:47.945Z,48.76
2018-01-15T12:41:16.304Z,50.48
2018-01-15T12:43:44.669Z,51.27
2018-01-15T12:46:13.024Z,50.16
2018-01-15T12:48:41.389Z,49.97
2018-01-15T12:51:09.790Z,49.52
2018-01-15T12:53:38.130Z,48.98
2018-01-15T12:56:06.510Z,48.05
2018-01-15T12:58:34.867Z,48.79
2018-01-15T13:01:03.715Z,47.80
2018-01-15T13:03:32.157Z,47.16
2018-01-15T13:06:07.087Z,47.44
2018-01-15T13:11:46.261Z,49.29
2018-01-15T13:14:14.678Z,49.72
2018-01-15T13:16:43.124Z,50.01
2018-01-15T13:19:11.470Z,48.12
2018-01-15T13:21:39.833Z,46.70
2018-01-15T13:24:08.576Z,47.89
2018-01-15T13:26:36.945Z,48.09
2018-01-15T13:29:05.338Z,48.46
2018-01-15T13:31:34.259Z,48.74
2018-01-15T13:34:02.746Z,48.26
2018-01-15T13:36:31.570Z,48.70
2018-01-15T13:39:00.312Z,48.51
2018-01-15T13:41:28.768Z,47.97
2018-01-15T13:43:57.124Z,47.02
2018-01-15T13:46:25.475Z,47.33
2018-01-15T13:48:53.823Z,47.56
2018-01-15T13:51:22.211Z,46.83
2018-01-15T13:53:51.050Z,47.62
2018-01-15T13:56:19.403Z,47.79
2018-01-15T13:58:47.833Z,47.40
2018-01-15T14:01:16.187Z,47.47
2018-01-15T14:03:44.539Z,47.47
2018-01-15T14:06:12.925Z,47.76
2018-01-15T14:08:41.285Z,49.39
2018-01-15T14:11:10.028Z,48.18
2018-01-15T14:13:38.507Z,48.33
2018-01-15T14:16:06.856Z,48.67
2018-01-15T14:18:35.215Z,49.38
2018-01-15T14:21:04.051Z,49.35
2018-01-15T14:23:32.458Z,49.27
2018-01-15T14:26:00.838Z,49.10
2018-01-15T14:28:29.235Z,48.86
2018-01-15T14:30:58.006Z,49.48
2018-01-15T14:33:26.376Z,50.39
2018-01-15T14:35:54.741Z,49.79
2018-01-15T14:38:23.109Z,50.30
2018-01-15T14:40:51.510Z,50.04
2018-01-15T14:43:19.976Z,50.31
2018-01-15T14:45:48.355Z,50.87
2018-01-15T14:48:16.708Z,50.08
2018-01-15T14:50:45.069Z,49.65
2018-01-15T14:53:13.489Z,50.10
2018-01-15T14:55:42.592Z,49.95
2018-01-15T14:58:11.082Z,49.93
2018-01-15T15:00:39.543Z,51.03
2018-01-15T15:03:07.915Z,51.08
2018-01-15T15:05:36.280Z,50.44
2018-01-15T15:08:05.545Z,51.44
2018-01-15T15:10:34.481Z,51.64
2018-01-15T15:13:02.836Z,51.58
2018-01-15T15:15:31.212Z,51.70
2018-01-15T15:17:59.629Z,50.60
2018-01-15T15:20:28.000Z,51.40
2018-01-15T15:22:56.352Z,52.21
2018-01-15T15:25:24.729Z,52.58
2018-01-15T15:27:53.077Z,51.96
2018-01-15T15:30:21.467Z,52.16
2018-01-15T15:32:50.221Z,52.77
2018-01-15T15:35:18.687Z,52.84
2018-01-15T15:37:47.039Z,52.50
2018-01-15T15:40:15.493Z,52.24
2018-01-15T15:42:44.238Z,52.62
2018-01-15T15:45:12.723Z,53.07
2018-01-15T15:47:41.085Z,52.92
2018-01-15T15:50:09.443Z,52.44
2018-01-15T15:52:37.812Z,52.44
2018-01-15T15:55:06.200Z,52.81
2018-01-15T15:57:34.577Z,53.27
2018-01-15T16:00:02.958Z,53.63
2018-01-15T16:02:31.372Z,53.52
2018-01-15T16:04:59.790Z,53.05
2018-01-15T16:07:28.594Z,51.54
2018-01-15T16:09:56.994Z,52.24
2018-01-15T16:12:25.347Z,53.08
2018-01-15T16:14:53.881Z,52.69
2018-01-15T16:17:22.259Z,53.08
2018-01-15T16:19:50.608Z,52.61
2018-01-15T16:22:33.829Z,53.78
2018-01-15T16:25:02.246Z,53.81
2018-01-15T16:27:30.728Z,53.52
2018-01-15T16:29:59.175Z,53.61
2018-01-15T16:32:27.563Z,53.50
2018-01-15T16:34:56.067Z,53.36
2018-01-15T16:37:24.454Z,53.36
2018-01-15T16:39:52.834Z,54.37
2018-01-15T16:42:21.982Z,53.54
2018-01-15T16:44:50.812Z,53.50
2018-01-15T16:47:19.176Z,53.75
2018-01-15T16:49:47.771Z,53.33
2018-01-15T16:52:16.137Z,53.55
2018-01-15T16:54:44.508Z,54.10
2018-01-15T16:57:12.889Z,54.14
2018-01-15T16:59:41.256Z,54.76
2018-01-15T17:02:09.650Z,53.67
2018-01-15T17:04:38.045Z,53.35
2018-01-15T17:07:06.423Z,53.97
2018-01-15T17:09:34.763Z,54.09
2018-01-15T17:12:03.159Z,53.32
2018-01-15T17:14:31.551Z,52.77
2018-01-15T17:16:59.940Z,52.54
2018-01-15T17:19:28.416Z,52.78
2018-01-15T17:21:56.783Z,53.33
2018-01-15T17:24:25.141Z,53.16
2018-01-15T17:26:53.525Z,53.00
2018-01-15T17:29:21.925Z,53.71
2018-01-15T17:31:50.284Z,53.46
2018-01-15T17:34:18.658Z,52.84
2018-01-15T17:36:47.068Z,52.45
2018-01-15T17:39:15.436Z,51.96
2018-01-15T17:41:43.808Z,52.71
2018-01-15T17:44:12.167Z,52.27
2018-01-15T17:46:40.580Z,52.60
2018-01-15T17:49:09.019Z,52.77
2018-01-15T17:51:37.391Z,53.43
2018-01-15T17:54:05.767Z,53.03
2018-01-15T17:56:34.237Z,54.42
2018-01-15T17:59:02.638Z,53.57
2018-01-15T18:01:30.990Z,52.46
2018-01-15T18:03:59.758Z,53.27
2018-01-15T18:06:28.137Z,52.85
2018-01-15T18:08:56.607Z,51.64
2018-01-15T18:11:24.971Z,53.16
2018-01-15T18:13:53.323Z,54.06
2018-01-15T18:16:21.718Z,52.89
2018-01-15T18:18:50.085Z,54.52
2018-01-15T18:21:18.446Z,54.32
2018-01-15T18:23:48.102Z,52.98
2018-01-15T18:26:16.562Z,53.22
2018-01-15T18:28:44.924Z,52.18
2018-01-15T18:31:13.373Z,52.28
2018-01-15T18:33:41.798Z,52.76
2018-01-15T18:36:10.228Z,53.18
2018-01-15T18:38:38.700Z,52.76
2018-01-15T18:41:07.059Z,53.03
2018-01-15T18:43:35.423Z,53.21
2018-01-15T18:46:03.807Z,55.13
2018-01-15T18:48:32.200Z,56.54
2018-01-15T18:51:00.678Z,57.53
2018-01-15T18:53:29.032Z,56.43
2018-01-15T18:55:57.404Z,56.08
2018-01-15T18:58:25.805Z,56.02
2018-01-15T19:00:54.156Z,54.72
2018-01-15T19:03:22.515Z,54.46
2018-01-15T19:05:51.271Z,54.92
2018-01-15T19:08:19.623Z,54.49
2018-01-15T19:10:47.972Z,54.40
2018-01-15T19:13:16.348Z,53.93
2018-01-15T19:15:45.092Z,54.86
2018-01-15T19:18:13.443Z,53.76
2018-01-15T19:20:41.819Z,53.25
2018-01-15T19:23:10.165Z,53.22
2018-01-15T19:25:38.512Z,52.10
2018-01-15T19:28:06.855Z,52.24
2018-01-15T19:30:35.208Z,52.41
2018-01-15T19:33:03.560Z,52.63
2018-01-15T19:35:37.427Z,52.76
2018-01-15T19:38:05.912Z,52.97
2018-01-15T19:40:34.281Z,53.37
2018-01-15T19:43:08.155Z,54.08
2018-01-15T19:45:42.436Z,54.01
2018-01-15T19:48:16.204Z,53.95
2018-01-15T19:53:57.263Z,55.25
2018-01-15T19:56:31.178Z,55.70
2018-01-15T19:59:05.207Z,55.86
2018-01-15T20:01:39.119Z,55.68
2018-01-15T20:04:13.021Z,55.76
2018-01-15T20:06:46.912Z,55.04
2018-01-15T20:09:20.824Z,55.09
2018-01-15T20:11:49.196Z,54.18
2018-01-15T20:14:17.963Z,54.14
2018-01-15T20:16:46.325Z,54.22
2018-01-15T20:19:32.124Z,54.07
2018-01-15T20:22:00.487Z,54.60
2018-01-15T20:24:28.972Z,53.67
2018-01-15T20:26:57.668Z,53.79
2018-01-15T20:29:26.031Z,53.91
2018-01-15T20:31:54.410Z,53.54
2018-01-15T20:34:22.798Z,54.45
2018-01-15T20:36:51.233Z,53.97
2018-01-15T20:39:19.738Z,53.24
2018-01-15T20:41:48.127Z,53.30
2018-01-15T20:44:16.508Z,52.09
2018-01-15T20:46:44.880Z,52.76
2018-01-15T20:49:13.265Z,53.62
2018-01-15T20:51:41.636Z,53.48
2018-01-15T20:54:10.042Z,52.56
2018-01-15T20:56:38.404Z,52.60
2018-01-15T20:59:06.775Z,52.93
2018-01-15T21:01:35.305Z,53.41
2018-01-15T21:04:03.655Z,52.96
2018-01-15T21:06:32.021Z,52.73
2018-01-15T21:09:00.525Z,52.73
2018-01-15T21:11:29.302Z,54.24
2018-01-15T21:13:57.676Z,53.68
2018-01-15T21:16:26.275Z,54.22
2018-01-15T21:18:54.738Z,52.28
2018-01-15T21:21:23.124Z,53.14
2018-01-15T21:23:51.596Z,52.61
2018-01-15T21:26:19.959Z,53.14
2018-01-15T21:28:48.323Z,52.80
2018-01-15T21:31:16.707Z,52.83
2018-01-15T21:33:45.075Z,52.37
2018-01-15T21:36:13.439Z,52.23
2018-01-15T21:38:41.959Z,51.82
2018-01-15T21:41:10.348Z,53.03
2018-01-15T21:43:38.725Z,52.84
2018-01-15T21:46:07.103Z,53.32
2018-01-15T21:48:35.520Z,52.64
2018-01-15T21:51:04.278Z,52.68
2018-01-15T21:53:32.631Z,52.56
2018-01-15T21:56:01.058Z,52.18
2018-01-15T21:58:29.817Z,52.31
2018-01-15T22:00:58.186Z,52.37
2018-01-15T22:03:26.547Z,51.83
2018-01-15T22:05:54.955Z,50.75
2018-01-15T22:08:23.361Z,51.25
2018-01-15T22:10:51.828Z,52.06
2018-01-15T22:13:20.195Z,52.17
2018-01-15T22:15:51.640Z,51.77
2018-01-15T22:18:20.209Z,51.66
2018-01-15T22:20:48.580Z,52.10
2018-01-15T22:23:16.954Z,50.66
2018-01-15T22:25:45.314Z,52.40
2018-01-15T22:28:13.680Z,53.83
2018-01-15T22:30:42.118Z,53.28
2018-01-15T22:33:10.496Z,54.27
2018-01-15T22:35:38.973Z,56.07
2018-01-15T22:38:07.339Z,56.85
2018-01-15T22:40:35.735Z,58.69
2018-01-15T22:43:04.143Z,57.86
2018-01-15T22:45:38.368Z,59.31
2018-01-15T22:48:07.834Z,58.96
2018-01-15T22:50:36.227Z,59.68
2018-01-15T22:53:04.609Z,60.31
2018-01-15T22:55:32.996Z,60.67
2018-01-15T22:58:01.375Z,60.37
2018-01-15T23:00:30.162Z,58.96
2018-01-15T23:02:58.527Z,60.12
2018-01-15T23:05:26.904Z,59.63
2018-01-15T23:07:55.280Z,58.86
2018-01-15T23:10:27.076Z,61.58
2018-01-15T23:12:55.831Z,61.99
2018-01-15T23:15:24.199Z,62.34
2018-01-15T23:17:52.570Z,62.74
2018-01-15T23:20:20.931Z,63.95
2018-01-15T23:22:49.316Z,63.66
2018-01-15T23:25:17.691Z,63.10
2018-01-15T23:27:46.128Z,62.51
2018-01-15T23:30:14.882Z,63.30
2018-01-15T23:32:43.261Z,63.48
2018-01-15T23:35:11.627Z,63.50
2018-01-15T23:37:40.055Z,63.12
2018-01-15T23:40:09.020Z,64.11
2018-01-15T23:42:37.400Z,64.71
2018-01-15T23:45:15.786Z,63.63
2018-01-15T23:47:44.216Z,64.76
2018-01-15T23:50:13.073Z,65.65
2018-01-15T23:52:41.442Z,66.74
2018-01-15T23:55:09.815Z,66.07
2018-01-15T23:57:38.205Z,65.58
